Date,TemperatureHighF,TemperatureAvgF,TemperatureLowF,DewpointHighF,DewpointAvgF,DewpointLowF,HumidityHigh,HumidityAvg,HumidityLow,PressureMaxIn,PressureMinIn,WindSpeedMaxMPH,WindSpeedAvgMPH,GustSpeedMaxMPH,PrecipitationSumIn
2014-2-1,48.6,40.5,32.7,8.2,1.5,-3.9,20,19,18,30.05,29.93,15,7,15,0.00
2014-2-2,58.8,46.1,36.9,18.2,6.6,-1.5,31,20,17,29.99,29.90,11,6,11,0.00
2014-2-3,49.8,41.2,28.6,41.2,20.7,-0.9,72,46,21,30.08,29.72,21,6,21,0.75
2014-2-4,37.2,31.0,26.4,11.5,6.2,-2.1,43,35,19,30.17,29.93,9,4,9,0.00
2014-2-5,48.6,37.0,22.5,41.6,14.2,-10.6,81,45,18,29.90,29.67,28,13,28,0.00
2014-2-6,32.7,24.6,17.6,-3.9,-9.4,-13.9,23,21,20,30.08,29.87,12,5,12,0.00
2014-2-7,35.6,27.0,21.2,-2.4,-7.7,-11.7,22,21,19,30.08,30.02,11,4,11,0.00
2014-2-8,39.9,32.4,27.3,0.3,-3.8,-7.4,23,20,18,30.08,29.96,9,4,9,0.00
2014-2-9,41.7,34.4,29.1,4.7,-0.7,-5.9,28,22,18,29.99,29.84,18,6,18,0.00
2014-2-10,31.6,26.3,19.0,-2.8,-8.0,-12.8,23,21,20,29.99,29.84,12,6,12,0.00
2014-2-11,31.3,21.6,15.3,-5.1,-11.4,-15.3,24,22,20,30.11,29.96,8,2,8,0.00
2014-2-12,21.7,15.8,12.2,-2.3,-13.7,-17.7,34,25,23,30.08,29.70,9,4,9,0.00
2014-2-13,30.7,25.3,22.3,9.8,4.3,-0.6,42,40,36,29.67,29.34,18,8,18,0.00
2014-2-14,43.7,32.4,22.5,5.3,0.5,-2.6,39,26,18,29.64,29.46,22,10,22,0.08
2014-2-15,34.9,25.2,14.2,9.2,-4.7,-16.0,41,27,20,29.81,29.43,22,10,22,0.00
2014-2-16,40.3,26.3,14.4,0.2,-7.6,-15.8,32,22,18,29.96,29.78,17,9,17,0.00
2014-2-17,38.1,27.2,16.9,-0.5,-7.6,-14.5,25,21,19,30.11,29.96,15,6,15,0.00
2014-2-18,47.3,37.0,26.6,7.4,1.4,-7.1,37,22,18,30.05,29.87,20,10,20,0.00
2014-2-19,55.0,46.6,39.9,19.6,8.4,1.4,38,21,18,29.99,29.81,27,10,27,0.08
2014-2-20,50.9,45.4,40.3,16.3,6.9,0.2,27,20,18,30.05,29.87,12,6,12,0.00
2014-2-21,52.5,45.2,34.7,46.5,19.0,-2.6,80,40,18,29.90,29.72,28,11,28,0.47
2014-2-22,51.8,40.9,33.1,10.7,2.5,-3.6,21,20,18,30.05,29.90,14,7,14,0.00
2014-2-23,56.7,46.3,38.1,12.4,5.6,-0.7,20,18,17,29.96,29.84,15,8,15,0.00
2014-2-24,39.9,33.2,26.4,0.3,-3.5,-8.2,23,20,18,29.96,29.81,18,9,18,0.00
2014-2-25,37.2,31.2,26.6,-1.2,-5.1,-8.1,21,20,19,29.93,29.78,17,7,17,0.00
2014-2-26,32.9,25.4,16.3,-3.8,-8.9,-15.0,23,21,20,29.78,29.64,11,5,11,0.00
2014-2-27,34.3,22.4,14.5,-2.6,-10.7,-15.7,24,22,20,29.78,29.58,20,10,20,0.00
2014-2-28,33.8,21.5,12.2,-3.0,-11.3,-17.7,24,22,20,30.05,29.78,8,4,8,0.00